Hanover, Kansas
Current Conditions -  °F | °C
As of 11:35 PM on Wednesday 26 Nov 2014 (Local Time) from KMYZ Reporting Station
Clear Clear  
Wind Chill: 13°   Ceiling: Unl
Heat Index: 21°   Visibility: 10mi
Dew Point: 18°   Wind: 7mph
Humidity: 86%   Direction: 330°NNW
Pressure: 30.46"   Gusts: NA
Location:  39.89°N, 96.88°W
Report Text: KMYZ 270535Z AUTO 33006KT 10SM CLR M06/M08 A3046 RMK AO2
Loading
Personal Weather Stations






























Interactive Weather Map New forecast layout! Learn more

10-Day Weather Forecast

Advertisements
Track Severe Weather on mobile